Time;durP1;ratioP1;P1;durP2;ratioP2;P2;SDS_P1;SDS_P2;PMS_P1;PMS_P2;Temp;Humidity;BMP_temperature;BMP_pressure;BME280_temperature;BME280_humidity;BME280_pressure;Samples;Min_cycle;Max_cycle;Signal;HPM_P1;HPM_P2
2022/08/24 00:00:13;;;;;;;3.67;1.70;;;;;;;18.21;61.05;98247.81;5000206;28;21027;-62
2022/08/24 00:02:41;;;;;;;3.30;1.70;;;;;;;18.09;61.63;98247.09;5022354;28;20419;-61
2022/08/24 00:05:10;;;;;;;3.55;1.50;;;;;;;17.96;61.95;98246.38;5000878;28;20905;-61
2022/08/24 00:07:42;;;;;;;3.63;1.63;;;;;;;17.79;62.76;98248.28;5022772;28;20415;-62
2022/08/24 00:10:12;;;;;;;3.33;1.48;;;;;;;17.83;62.73;98250.31;5025622;28;20463;-61
2022/08/24 00:12:40;;;;;;;4.80;1.73;;;;;;;17.92;62.22;98245.47;5021629;28;20458;-61
2022/08/24 00:15:14;;;;;;;3.72;1.70;;;;;;;17.99;62.28;98245.66;5023098;28;20411;-62
2022/08/24 00:17:43;;;;;;;4.88;1.70;;;;;;;18.06;61.91;98248.63;5024086;28;20418;-63
2022/08/24 00:20:12;;;;;;;3.60;1.73;;;;;;;18.12;61.53;98249.16;5023760;28;20417;-61
2022/08/24 00:22:41;;;;;;;3.17;1.70;;;;;;;17.93;62.34;98247.06;5025266;28;20415;-61
2022/08/24 00:25:13;;;;;;;5.03;1.63;;;;;;;17.95;62.35;98248.34;5029030;28;20415;-61
2022/08/24 00:27:42;;;;;;;3.90;1.83;;;;;;;17.95;62.17;98245.59;5020903;28;20427;-61
2022/08/24 00:30:17;;;;;;;3.75;1.60;;;;;;;17.98;62.44;98249.56;5023489;28;21466;-61
2022/08/24 00:32:46;;;;;;;4.97;1.70;;;;;;;17.81;62.93;98245.19;5022385;28;20417;-61
2022/08/24 00:35:40;;;;;;;3.35;1.85;;;;;;;17.87;62.79;98240.22;5022738;28;20484;-62
2022/08/24 00:38:08;;;;;;;2.77;1.60;;;;;;;17.72;63.37;98239.84;5025417;28;20519;-62
2022/08/24 00:40:38;;;;;;;4.07;2.13;;;;;;;17.78;63.21;98241.19;5026194;28;20435;-61
2022/08/24 00:43:09;;;;;;;3.40;1.80;;;;;;;17.83;63.32;98234.63;5046147;28;20407;-61
2022/08/24 00:45:45;;;;;;;4.68;2.05;;;;;;;17.93;62.60;98242.38;5009289;28;22862;-62
2022/08/24 00:48:17;;;;;;;3.60;1.80;;;;;;;18.00;62.42;98244.50;5030918;28;20891;-62
2022/08/24 00:50:49;;;;;;;4.47;1.67;;;;;;;17.96;62.38;98244.44;5021195;28;20451;-61
2022/08/24 00:53:24;;;;;;;5.10;2.00;;;;;;;17.95;62.35;98242.00;5028301;28;20472;-61
2022/08/24 00:55:55;;;;;;;4.23;2.00;;;;;;;17.93;62.60;98249.81;5027981;28;20981;-61
2022/08/24 00:58:28;;;;;;;3.78;1.77;;;;;;;17.88;62.76;98250.88;5029107;28;20414;-61
2022/08/24 01:01:01;;;;;;;4.10;2.15;;;;;;;17.36;64.96;98248.97;5024922;28;20421;-61
2022/08/24 01:03:30;;;;;;;3.45;1.92;;;;;;;17.47;64.31;98252.84;5022997;28;20411;-61
2022/08/24 01:06:01;;;;;;;5.13;2.03;;;;;;;17.59;63.93;98257.50;5025830;28;20426;-61
2022/08/24 01:08:29;;;;;;;5.70;1.90;;;;;;;17.62;63.83;98258.72;5027284;28;20442;-61
2022/08/24 01:11:00;;;;;;;3.93;1.90;;;;;;;17.67;63.63;98253.00;5026745;28;20444;-62
2022/08/24 01:13:29;;;;;;;3.90;1.98;;;;;;;17.73;63.26;98248.88;5008440;28;20489;-61
2022/08/24 01:16:03;;;;;;;3.43;1.93;;;;;;;17.68;63.38;98252.63;5027467;28;20414;-61
2022/08/24 01:18:49;;;;;;;5.85;2.15;;;;;;;17.61;63.71;98249.69;5022197;28;20502;-63
2022/08/24 01:21:21;;;;;;;6.18;2.25;;;;;;;17.34;64.53;98243.03;5038876;28;20427;-62
2022/08/24 01:23:53;;;;;;;4.10;2.15;;;;;;;17.44;64.07;98244.50;5009028;28;20399;-62
2022/08/24 01:26:46;;;;;;;3.67;1.83;;;;;;;17.40;64.39;98240.84;5031527;28;20418;-66
2022/08/24 01:29:19;;;;;;;5.25;2.00;;;;;;;17.20;65.15;98254.38;5021501;28;20411;-62
2022/08/24 01:31:53;;;;;;;5.03;1.95;;;;;;;17.19;65.14;98254.72;5023868;28;20454;-61
2022/08/24 01:34:22;;;;;;;;;;;;;;;17.31;64.82;98253.91;5037080;28;20504;-61
2022/08/24 01:36:54;;;;;;;4.75;2.03;;;;;;;17.33;64.69;98244.19;5025459;28;20443;-61
2022/08/24 01:39:29;;;;;;;3.92;1.95;;;;;;;17.35;64.39;98250.13;5025930;28;20438;-61
2022/08/24 01:41:58;;;;;;;3.88;2.03;;;;;;;17.20;64.92;98254.38;5022526;28;20521;-62
2022/08/24 01:44:32;;;;;;;4.63;2.13;;;;;;;16.97;66.12;98250.53;5020782;28;20435;-61
2022/08/24 01:47:05;;;;;;;3.95;2.10;;;;;;;17.18;65.17;98245.69;5001177;28;20471;-61
2022/08/24 01:49:38;;;;;;;;;;;;;;;17.24;65.20;98244.31;5023995;28;20496;-61
2022/08/24 01:52:07;;;;;;;;;;;;;;;17.20;65.24;98237.09;5033523;28;19927;-62
2022/08/24 01:54:36;;;;;;;;;;;;;;;17.24;64.90;98240.75;5024340;28;19921;-62
2022/08/24 01:57:05;;;;;;;;;;;;;;;17.14;65.43;98236.56;5022820;28;19924;-61
2022/08/24 01:59:33;;;;;;;;;;;;;;;17.08;65.55;98240.69;5024251;28;19939;-61
2022/08/24 02:02:04;;;;;;;;;;;;;;;17.10;65.54;98237.59;5023810;28;19932;-61
2022/08/24 02:04:35;;;;;;;;;;;;;;;17.09;65.42;98242.28;5044105;28;20016;-61
2022/08/24 02:07:07;;;;;;;;;;;;;;;17.07;65.58;98239.09;5022058;28;19921;-61
2022/08/24 02:09:37;;;;;;;;;;;;;;;17.02;65.81;98237.38;5041184;28;19929;-62
2022/08/24 02:12:08;;;;;;;;;;;;;;;16.92;66.18;98240.59;5009268;28;20293;-61
2022/08/24 02:14:50;;;;;;;;;;;;;;;16.79;66.78;98249.19;5036233;28;19929;-61
2022/08/24 02:17:21;;;;;;;;;;;;;;;16.76;66.71;98245.97;5022894;28;19932;-61
2022/08/24 02:19:51;;;;;;;;;;;;;;;16.75;66.77;98252.63;5025632;28;19975;-63
2022/08/24 02:22:22;;;;;;;;;;;;;;;16.68;67.10;98257.84;5024976;28;19921;-61
2022/08/24 02:25:16;;;;;;;5.32;2.35;;;;;;;16.57;67.59;98242.19;5023060;28;20887;-62
2022/08/24 02:27:45;;;;;;;4.80;2.08;;;;;;;16.18;69.16;98253.44;5018243;28;20425;-62
2022/08/24 02:30:39;;;;;;;4.90;2.33;;;;;;;16.37;68.36;98252.91;5025311;28;20859;-62
2022/08/24 02:33:08;;;;;;;6.10;2.25;;;;;;;16.58;67.78;98257.50;5025056;28;20425;-61
2022/08/24 02:35:40;;;;;;;;;;;;;;;16.61;67.57;98251.31;5028060;28;20493;-62
2022/08/24 02:38:09;;;;;;;5.70;2.20;;;;;;;16.66;67.44;98245.59;5061123;28;20779;-61
2022/08/24 02:40:40;;;;;;;5.07;2.20;;;;;;;16.11;69.38;98247.72;5049604;28;20881;-61
2022/08/24 02:43:09;;;;;;;5.68;2.13;;;;;;;16.26;68.87;98253.69;5060812;28;20463;-62
2022/08/24 02:45:38;;;;;;;4.35;2.50;;;;;;;15.96;69.86;98256.59;5045433;28;20413;-61
2022/08/24 02:48:07;;;;;;;3.40;1.80;;;;;;;16.02;69.64;98254.44;5048666;28;20422;-61
2022/08/24 02:50:38;;;;;;;4.47;2.53;;;;;;;16.21;68.88;98258.25;5044766;28;20415;-61
2022/08/24 02:53:07;;;;;;;4.63;2.23;;;;;;;16.37;68.17;98252.91;5056753;28;20407;-61
2022/08/24 02:55:38;;;;;;;4.00;2.28;;;;;;;16.48;67.49;98256.81;5048958;28;20482;-62
2022/08/24 02:58:09;;;;;;;5.40;2.92;;;;;;;16.45;67.65;98257.47;5044603;28;20415;-62
2022/08/24 03:00:39;;;;;;;10.70;9.82;;;;;;;16.33;68.13;98260.22;5065667;28;20420;-61
2022/08/24 03:03:10;;;;;;;36.75;31.95;;;;;;;16.42;67.51;98258.19;5059321;28;20416;-61
2022/08/24 03:05:39;;;;;;;6.10;2.70;;;;;;;15.94;69.43;98256.13;5068575;28;20410;-62
2022/08/24 03:08:08;;;;;;;6.47;2.60;;;;;;;15.91;69.78;98254.84;5059952;28;20471;-61
2022/08/24 03:10:39;;;;;;;5.55;2.60;;;;;;;16.07;69.25;98248.72;5056119;28;20795;-61
2022/08/24 03:13:09;;;;;;;4.73;2.40;;;;;;;16.01;69.65;98258.31;5048839;28;20400;-61
2022/08/24 03:15:39;;;;;;;4.50;2.40;;;;;;;16.06;69.10;98239.72;5050088;28;20405;-62
2022/08/24 03:18:10;;;;;;;4.82;2.28;;;;;;;16.15;68.95;98256.06;5050939;28;20412;-63
2022/08/24 03:20:42;;;;;;;4.22;2.35;;;;;;;16.10;69.22;98253.56;5050143;28;20513;-62
2022/08/24 03:23:12;;;;;;;6.40;2.47;;;;;;;15.91;70.33;98251.31;5050709;28;20429;-62
2022/08/24 03:25:41;;;;;;;28.33;26.23;;;;;;;15.96;69.89;98253.84;5051256;28;20422;-62
2022/08/24 03:28:11;;;;;;;4.22;2.53;;;;;;;16.01;69.54;98250.09;5050272;28;21050;-61
2022/08/24 03:31:04;;;;;;;4.70;2.30;;;;;;;15.93;69.99;98247.13;5049567;28;20893;-62
2022/08/24 03:33:32;;;;;;;4.20;2.50;;;;;;;15.86;70.17;98246.03;5049590;28;20878;-61
2022/08/24 03:36:01;;;;;;;4.95;2.53;;;;;;;15.74;70.45;98243.28;5045759;28;20465;-61
2022/08/24 03:38:29;;;;;;;5.63;2.60;;;;;;;15.95;69.67;98244.03;5040733;28;20426;-62
2022/08/24 03:41:00;;;;;;;3.95;2.10;;;;;;;15.97;69.31;98252.69;5003231;28;20452;-61
2022/08/24 03:43:48;;;;;;;81.43;67.43;;;;;;;15.80;69.77;98255.63;5028054;28;20426;-61
2022/08/24 03:46:23;;;;;;;24.23;22.52;;;;;;;15.71;70.16;98248.31;5021915;28;20412;-61
2022/08/24 03:48:53;;;;;;;46.85;42.58;;;;;;;15.78;70.22;98249.69;5026902;28;20476;-61
2022/08/24 03:51:26;;;;;;;28.42;26.48;;;;;;;15.83;69.97;98252.22;5021111;28;20405;-61
2022/08/24 03:53:56;;;;;;;7.22;6.32;;;;;;;15.56;71.06;98254.38;5038117;28;20502;-61
2022/08/24 03:56:27;;;;;;;5.20;2.53;;;;;;;15.41;71.80;98255.78;5025292;28;20403;-61
2022/08/24 03:58:57;;;;;;;4.85;2.72;;;;;;;15.39;72.01;98263.53;5023684;28;20428;-61
2022/08/24 04:01:29;;;;;;;5.05;2.70;;;;;;;15.55;71.35;98263.69;5025010;28;20502;-61
2022/08/24 04:03:58;;;;;;;4.72;2.67;;;;;;;15.61;71.07;98262.38;5024149;28;20452;-61
2022/08/24 04:06:33;;;;;;;4.72;2.70;;;;;;;15.54;71.41;98267.56;5019587;28;20472;-61
2022/08/24 04:09:02;;;;;;;5.78;3.20;;;;;;;15.56;71.66;98264.53;5021888;28;20813;-61
2022/08/24 04:11:34;;;;;;;4.97;2.78;;;;;;;15.53;71.59;98262.44;5025777;28;20749;-62
2022/08/24 04:14:09;;;;;;;5.88;3.15;;;;;;;15.48;71.77;98263.44;5022021;28;20848;-61
2022/08/24 04:16:59;;;;;;;4.68;2.53;;;;;;;15.67;70.99;98257.53;5039118;28;20826;-61
2022/08/24 04:19:34;;;;;;;5.78;2.88;;;;;;;15.64;70.88;98272.66;5039043;28;20889;-61
2022/08/24 04:22:02;;;;;;;5.20;2.85;;;;;;;15.64;70.93;98269.94;5020339;28;20417;-62
2022/08/24 04:24:32;;;;;;;4.20;2.47;;;;;;;15.66;70.79;98270.41;5022201;28;20974;-62
2022/08/24 04:27:01;;;;;;;6.18;2.50;;;;;;;15.61;70.90;98276.06;5024871;28;20421;-62
2022/08/24 04:29:33;;;;;;;5.45;3.08;;;;;;;15.59;71.05;98280.25;5023158;28;20422;-62
2022/08/24 04:32:01;;;;;;;4.97;2.78;;;;;;;15.59;71.01;98275.59;5023361;28;20795;-61
2022/08/24 04:34:57;;;;;;;;;;;;;;;15.64;70.74;98275.41;5006893;28;20424;-61
2022/08/24 04:37:28;;;;;;;;;;;;;;;15.74;70.45;98278.88;5044630;28;19986;-61
2022/08/24 04:39:57;;;;;;;;;;;;;;;15.78;70.22;98288.03;5040707;28;19925;-62
2022/08/24 04:42:31;;;;;;;;;;;;;;;15.66;70.69;98286.84;5027354;28;19975;-61
2022/08/24 04:45:01;;;;;;;;;;;;;;;15.69;70.84;98280.69;5026733;28;19975;-61
2022/08/24 04:47:30;;;;;;;;;;;;;;;15.51;71.52;98281.94;5028712;28;20381;-62
2022/08/24 04:49:59;;;;;;;;;;;;;;;15.64;71.04;98291.06;5028702;28;20007;-61
2022/08/24 04:52:28;;;;;;;;;;;;;;;15.48;71.85;98299.03;5026878;28;19964;-61
2022/08/24 04:54:58;;;;;;;;;;;;;;;15.56;71.60;98300.91;5028562;28;20023;-62
2022/08/24 04:57:26;;;;;;;;;;;;;;;15.41;72.47;98298.78;5025454;28;19921;-62
2022/08/24 04:59:56;;;;;;;;;;;;;;;15.66;71.59;98305.22;5027972;28;20020;-61
2022/08/24 05:02:26;;;;;;;;;;;;;;;15.69;71.39;98305.34;5039943;28;19960;-61
2022/08/24 05:04:56;;;;;;;;;;;;;;;15.79;70.87;98303.34;5019984;28;19983;-64
2022/08/24 05:07:25;;;;;;;;;;;;;;;15.78;71.29;98308.00;5043278;28;20290;-61
2022/08/24 05:09:54;;;;;;;;;;;;;;;15.84;71.03;98316.81;5037948;28;20019;-61
2022/08/24 05:12:22;;;;;;;;;;;;;;;15.73;71.47;98315.63;5023131;28;19928;-61
2022/08/24 05:14:59;;;;;;;;;;;;;;;15.73;71.71;98308.22;5045710;28;20330;-61
2022/08/24 05:17:35;;;;;;;;;;;;;;;15.78;71.99;98309.97;5025796;28;20186;-61
2022/08/24 05:20:04;;;;;;;;;;;;;;;15.84;71.69;98309.41;5040394;28;20435;-61
2022/08/24 05:22:32;;;;;;;;;;;;;;;15.78;72.37;98312.69;5023436;28;19925;-62
2022/08/24 05:27:56;;;;;;;;;;;;;;;16.01;71.45;98319.41;5044491;28;19920;-62
2022/08/24 05:30:50;;;;;;;;;;;;;;;16.03;71.51;98317.13;5026298;28;19933;-61
2022/08/24 05:33:20;;;;;;;;;;;;;;;15.98;71.54;98309.94;5023720;28;19983;-62
2022/08/24 05:35:51;;;;;;;;;;;;;;;16.06;71.51;98316.44;5026669;28;19921;-62
2022/08/24 05:38:19;;;;;;;;;;;;;;;16.04;71.67;98317.94;5062071;28;20373;-62
2022/08/24 05:40:47;;;;;;;;;;;;;;;16.23;71.16;98321.75;5049820;28;19928;-62
2022/08/24 05:43:15;;;;;;;;;;;;;;;16.24;71.01;98317.06;5047333;28;20331;-62
2022/08/24 05:45:44;;;;;;;;;;;;;;;16.02;72.00;98321.00;5044443;28;19968;-62
2022/08/24 05:48:15;;;;;;;;;;;;;;;16.10;71.58;98322.88;5048202;28;20309;-62
2022/08/24 05:51:10;;;;;;;;;;;;;;;16.30;71.00;98331.38;5056192;28;20019;-62
2022/08/24 05:53:51;;;;;;;;;;;;;;;16.44;70.31;98326.38;5061809;28;20023;-62
2022/08/24 05:56:21;;;;;;;;;;;;;;;16.39;70.49;98335.63;5047110;28;19920;-62
2022/08/24 05:58:50;;;;;;;;;;;;;;;16.46;70.38;98330.41;5047969;28;21305;-61
2022/08/24 06:01:19;;;;;;;;;;;;;;;16.62;69.95;98341.53;5048218;28;19970;-65
2022/08/24 06:03:47;;;;;;;;;;;;;;;16.35;71.34;98336.63;5050842;28;19924;-61
2022/08/24 06:06:17;;;;;;;;;;;;;;;16.52;70.78;98343.91;5050801;28;19928;-62
2022/08/24 06:08:48;;;;;;;;;;;;;;;16.61;70.32;98341.84;5044756;28;19924;-61
2022/08/24 06:11:20;;;;;;;;;;;;;;;16.76;69.91;98350.25;5050240;28;19947;-62
2022/08/24 06:13:48;;;;;;;;;;;;;;;16.76;69.92;98346.69;5060696;28;19924;-62
2022/08/24 06:16:22;;;;;;;;;;;;;;;16.97;69.45;98349.34;5064898;28;19920;-66
2022/08/24 06:18:54;;;;;;;8.63;4.03;;;;;;;16.71;71.12;98344.97;5045303;28;20426;-62
2022/08/24 06:21:27;;;;;;;5.13;3.50;;;;;;;16.70;71.54;98346.09;5046412;28;20496;-61
2022/08/24 06:23:58;;;;;;;5.70;3.00;;;;;;;16.90;70.96;98346.38;5061672;28;20427;-62
2022/08/24 06:29:40;;;;;;;6.78;3.33;;;;;;;17.09;70.32;98341.09;5044841;28;20522;-62
2022/08/24 06:32:27;;;;;;;5.97;3.47;;;;;;;17.17;70.28;98331.97;5047524;28;20419;-62
2022/08/24 06:34:57;;;;;;;5.38;3.65;;;;;;;17.39;68.94;98325.19;5050561;28;20412;-62
2022/08/24 06:37:28;;;;;;;8.40;5.03;;;;;;;17.63;68.71;98331.75;5031362;28;20424;-62
2022/08/24 06:39:58;;;;;;;;;;;;;;;17.45;68.92;98326.53;5008937;28;20419;-62
2022/08/24 06:42:28;;;;;;;;;;;;;;;17.76;68.26;98328.69;5046587;28;19920;-62
2022/08/24 06:44:59;;;;;;;;;;;;;;;17.96;67.76;98329.66;5027062;28;19921;-62
2022/08/24 06:47:27;;;;;;;;;;;;;;;18.12;67.27;98337.94;5043270;28;20431;-63
2022/08/24 06:50:00;;;;;;;5.03;3.03;;;;;;;18.29;66.84;98343.13;5042720;28;20757;-62
2022/08/24 06:52:30;;;;;;;15.90;14.73;;;;;;;18.18;67.25;98346.75;5029754;28;20416;-62
2022/08/24 06:54:58;;;;;;;7.70;4.00;;;;;;;18.27;67.44;98344.63;5003640;28;20412;-62
2022/08/24 06:57:30;;;;;;;139.07;90.45;;;;;;;18.39;66.57;98343.78;5028786;28;20403;-62
2022/08/24 06:59:58;;;;;;;7.47;3.60;;;;;;;18.45;66.58;98345.13;5029363;28;20450;-62
2022/08/24 07:02:26;;;;;;;27.77;25.77;;;;;;;18.63;66.21;98343.63;5032612;28;20505;-62
2022/08/24 07:04:54;;;;;;;98.87;75.70;;;;;;;18.90;65.59;98343.91;5028774;28;20420;-62
2022/08/24 07:07:59;;;;;;;;;;;;;;;19.05;65.08;98348.63;4985672;28;20430;-62
2022/08/24 07:10:29;;;;;;;7.80;3.73;;;;;;;19.00;64.98;98348.91;5014881;28;20515;-62
2022/08/24 07:13:00;;;;;;;38.08;35.15;;;;;;;18.92;65.32;98347.94;5044582;28;20413;-62
2022/08/24 07:15:28;;;;;;;;;;;;;;;19.00;65.04;98349.69;5021748;28;20444;-62
2022/08/24 07:18:12;;;;;;;;;;;;;;;19.03;64.92;98348.19;5031092;28;20020;-65
2022/08/24 07:20:43;;;;;;;;;;;;;;;19.07;64.98;98346.34;5029703;28;20895;-64
2022/08/24 07:23:39;;;;;;;;;;;;;;;19.33;64.41;98338.31;5030186;28;19921;-62
2022/08/24 07:26:34;;;;;;;;;;;;;;;19.51;64.14;98341.44;5030495;28;19968;-62
2022/08/24 07:29:09;;;;;;;;;;;;;;;19.76;63.73;98336.50;5043035;28;20503;-63
2022/08/24 07:31:57;;;;;;;;;;;;;;;19.79;63.39;98335.78;5027777;28;19926;-62
2022/08/24 07:34:32;;;;;;;;;;;;;;;19.99;62.58;98339.34;5030323;28;20335;-62
2022/08/24 07:37:02;;;;;;;;;;;;;;;20.18;62.08;98337.72;5045574;28;19925;-62
2022/08/24 07:39:32;;;;;;;;;;;;;;;20.28;61.23;98334.38;5045014;28;19925;-63
2022/08/24 07:42:00;;;;;;;;;;;;;;;20.49;61.35;98342.28;5027196;28;20016;-62
2022/08/24 07:44:50;;;;;;;;;;;;;;;20.62;60.69;98341.78;5039191;28;19925;-62
2022/08/24 07:47:21;;;;;;;;;;;;;;;20.68;60.28;98347.78;5043838;28;20362;-62
2022/08/24 07:50:23;;;;;;;;;;;;;;;20.87;60.31;98353.22;5046179;28;19921;-63
2022/08/24 07:52:53;;;;;;;;;;;;;;;20.98;59.65;98349.84;5030284;28;19960;-62
2022/08/24 07:55:25;;;;;;;;;;;;;;;20.92;59.49;98357.66;5039131;28;19929;-62
2022/08/24 07:57:53;;;;;;;;;;;;;;;21.01;59.21;98355.44;5043979;28;19925;-63
2022/08/24 08:00:22;;;;;;;;;;;;;;;21.14;59.13;98347.75;5042533;28;19921;-62
2022/08/24 08:02:56;;;;;;;;;;;;;;;21.26;58.75;98355.84;5027469;28;19925;-62
2022/08/24 08:05:49;;;;;;;;;;;;;;;21.34;57.86;98357.56;5009509;28;19925;-62
2022/08/24 08:08:19;;;;;;;;;;;;;;;21.33;58.33;98350.44;5045981;28;19925;-62
2022/08/24 08:10:48;;;;;;;;;;;;;;;21.41;58.19;98349.41;5040182;28;20382;-63
2022/08/24 08:13:15;;;;;;;;;;;;;;;21.49;57.87;98353.06;5040025;28;19928;-63
2022/08/24 08:15:44;;;;;;;;;;;;;;;21.59;57.63;98351.63;5039369;28;20016;-62
2022/08/24 08:18:12;;;;;;;;;;;;;;;21.67;57.85;98348.56;5025396;28;20432;-63
2022/08/24 08:20:40;;;;;;;;;;;;;;;21.85;56.66;98348.81;5040697;28;19929;-62
2022/08/24 08:29:38;;;;;;;;;;;;;;;21.77;56.32;98349.88;5039269;28;19925;-62
2022/08/24 08:32:08;;;;;;;;;;;;;;;21.91;56.06;98352.06;5027047;28;19925;-62
2022/08/24 08:34:36;;;;;;;;;;;;;;;22.11;55.54;98355.50;5027006;28;19929;-63
2022/08/24 08:37:04;;;;;;;;;;;;;;;22.29;55.25;98350.97;5055948;28;20405;-62
2022/08/24 08:39:36;;;;;;;;;;;;;;;22.30;54.45;98347.00;5063560;28;20372;-62
2022/08/24 08:42:20;;;;;;;;;;;;;;;22.26;54.20;98346.16;5060917;28;19921;-63
2022/08/24 08:44:52;;;;;;;;;;;;;;;22.41;54.75;98345.16;5060696;28;19921;-62
2022/08/24 08:47:23;;;;;;;;;;;;;;;22.30;54.36;98340.69;5047785;28;20015;-62
2022/08/24 08:50:05;;;;;;;;;;;;;;;22.31;54.27;98340.28;5060341;28;20329;-62
2022/08/24 08:52:53;;;;;;;;;;;;;;;22.50;53.65;98339.31;5041840;28;19932;-62
2022/08/24 08:55:25;;;;;;;;;;;;;;;22.62;53.77;98335.47;5047483;28;20015;-62
2022/08/24 09:01:01;;;;;;;;;;;;;;;22.80;52.01;98343.94;5062233;28;19920;-62
2022/08/24 09:03:35;;;;;;;;;;;;;;;22.68;52.71;98345.03;5059163;28;20041;-61
2022/08/24 09:06:27;;;;;;;;;;;;;;;22.87;52.62;98346.78;5048558;28;19928;-62
2022/08/24 09:09:00;;;;;;;;;;;;;;;23.04;51.79;98331.53;5060400;28;19927;-63
2022/08/24 09:11:32;;;;;;;;;;;;;;;23.07;51.67;98344.63;5048156;28;19921;-62
2022/08/24 09:14:13;;;;;;;;;;;;;;;23.05;51.56;98333.13;5063165;28;20407;-61
2022/08/24 09:16:57;;;;;;;;;;;;;;;23.21;51.59;98330.84;5059922;28;20373;-62
2022/08/24 09:19:29;;;;;;;;;;;;;;;23.22;51.39;98327.72;5056270;28;19936;-62
2022/08/24 09:22:04;;;;;;;;;;;;;;;23.35;51.65;98327.41;5046990;28;20277;-61
2022/08/24 09:24:51;;;;;;;;;;;;;;;23.55;50.00;98319.63;5060897;28;19925;-61
2022/08/24 09:27:41;;;;;;;;;;;;;;;23.50;50.54;98321.56;5047968;28;19952;-62
2022/08/24 09:30:41;;;;;;;;;;;;;;;23.24;52.37;98321.78;5044593;28;19927;-62
2022/08/24 09:33:13;;;;;;;;;;;;;;;23.42;51.67;98322.69;5045931;28;19920;-61
2022/08/24 09:35:52;;;;;;;;;;;;;;;23.44;52.10;98314.81;5045184;28;20344;-63
2022/08/24 09:38:23;;;;;;;;;;;;;;;23.59;50.66;98318.44;5065813;28;19927;-62
2022/08/24 09:41:00;;;;;;;;;;;;;;;23.60;51.03;98317.25;5051937;28;20139;-62
2022/08/24 09:43:52;;;;;;;;;;;;;;;23.58;51.33;98316.06;5063369;28;20011;-61
2022/08/24 09:46:28;;;;;;;;;;;;;;;23.78;51.08;98312.63;5066622;28;19928;-64
2022/08/24 09:49:07;;;;;;;;;;;;;;;23.99;50.67;98311.91;5060538;28;20368;-60
2022/08/24 09:51:55;;;;;;;;;;;;;;;24.11;49.83;98305.22;5060868;28;19920;-62
2022/08/24 09:57:31;;;;;;;;;;;;;;;23.99;50.11;98306.38;5047163;28;19921;-61
2022/08/24 10:00:22;;;;;;;;;;;;;;;23.97;50.10;98303.19;5045897;28;19928;-60
2022/08/24 10:02:55;;;;;;;;;;;;;;;23.86;50.14;98301.53;5062776;28;19974;-61
2022/08/24 10:05:48;;;;;;;;;;;;;;;23.85;49.96;98305.50;5063933;28;20369;-61
2022/08/24 10:08:20;;;;;;;;;;;;;;;23.55;51.12;98302.97;5064636;28;19921;-61
2022/08/24 10:11:13;;;;;;;;;;;;;;;23.49;51.42;98306.13;5063592;28;19925;-62
2022/08/24 10:13:43;;;;;;;;;;;;;;;23.60;51.60;98305.38;5073203;28;20346;-62
2022/08/24 10:16:17;;;;;;;;;;;;;;;23.64;51.35;98295.91;5072344;28;20001;-61
2022/08/24 10:18:53;;;;;;;;;;;;;;;23.90;50.74;98303.16;5069945;28;19921;-60
2022/08/24 10:21:25;;;;;;;;;;;;;;;24.19;50.22;98294.94;5049523;28;20353;-61
2022/08/24 10:24:04;;;;;;;;;;;;;;;24.21;50.37;98300.88;5069770;28;19921;-61
2022/08/24 10:26:56;;;;;;;;;;;;;;;24.10;50.86;98300.06;5073118;28;19920;-61
2022/08/24 10:29:30;;;;;;;;;;;;;;;24.19;49.90;98301.28;5066993;28;19928;-61
2022/08/24 10:32:04;;;;;;;;;;;;;;;24.30;49.41;98293.78;5067017;28;19935;-62
2022/08/24 10:34:37;;;;;;;;;;;;;;;24.31;50.54;98287.03;5071317;28;19932;-60
2022/08/24 10:37:29;;;;;;;;;;;;;;;24.39;49.94;98296.19;5068528;28;20393;-60
2022/08/24 10:40:02;;;;;;;;;;;;;;;24.41;49.63;98290.25;5039626;28;19928;-61
2022/08/24 10:46:02;;;;;;;;;;;;;;;24.78;47.08;98281.56;5040212;28;19927;-61
2022/08/24 10:48:39;;;;;;;;;;;;;;;24.88;46.71;98289.09;5039061;28;19924;-62
2022/08/24 10:51:10;;;;;;;;;;;;;;;24.78;47.22;98287.91;5049735;28;19924;-62
2022/08/24 10:53:38;;;;;;;;;;;;;;;24.66;47.15;98279.16;5064272;28;19925;-62
2022/08/24 10:56:08;;;;;;;;;;;;;;;24.71;46.80;98287.09;5067156;28;19974;-61
2022/08/24 10:58:38;;;;;;;;;;;;;;;24.88;47.14;98278.00;5068328;28;19920;-61
2022/08/24 11:01:13;;;;;;;;;;;;;;;25.06;46.94;98278.78;5064340;28;19924;-61
2022/08/24 11:03:48;;;;;;;;;;;;;;;25.20;46.28;98277.19;5048876;28;20426;-61
2022/08/24 11:06:20;;;;;;;;;;;;;;;25.15;45.94;98269.25;5048908;28;20381;-61
2022/08/24 11:08:52;;;;;;;;;;;;;;;25.24;46.33;98269.63;5070231;28;20014;-62
2022/08/24 11:11:23;;;;;;;;;;;;;;;25.31;44.99;98272.41;5068090;28;19927;-62
2022/08/24 11:13:52;;;;;;;;;;;;;;;25.21;45.37;98273.22;5050592;28;20390;-61
2022/08/24 11:16:24;;;;;;;;;;;;;;;25.33;45.18;98283.91;5055099;28;19920;-61
2022/08/24 11:18:53;;;;;;;;;;;;;;;25.33;45.91;98281.94;5064620;28;19955;-61
2022/08/24 11:21:32;;;;;;;;;;;;;;;25.44;44.85;98281.09;5064488;28;20380;-61
2022/08/24 11:24:01;;;;;;;;;;;;;;;25.27;44.82;98277.97;5065531;28;19997;-61
2022/08/24 11:29:23;;;;;;;;;;;;;;;25.57;44.31;98285.06;5068040;28;20578;-61
2022/08/24 11:31:53;;;;;;;4.30;1.67;;;;;;;25.50;44.41;98277.50;5050492;28;20423;-61
2022/08/24 11:34:33;;;;;;;4.30;2.17;;;;;;;25.61;45.02;98280.25;5048844;28;20416;-63
2022/08/24 11:37:03;;;;;;;4.25;2.33;;;;;;;25.73;44.57;98270.69;5034356;28;20415;-61
2022/08/24 11:39:34;;;;;;;5.83;2.53;;;;;;;25.77;44.17;98265.91;5027056;28;20411;-61
2022/08/24 11:42:14;;;;;;;3.83;1.90;;;;;;;25.73;44.03;98270.69;5027527;28;20811;-61
2022/08/24 11:44:48;;;;;;;4.70;2.17;;;;;;;25.70;44.20;98272.28;5024518;28;20418;-62
2022/08/24 11:47:35;;;;;;;;;;;;;;;25.51;44.57;98270.75;5028459;28;20304;-61
2022/08/24 11:50:06;;;;;;;;;;;;;;;25.54;44.33;98275.50;5024867;28;19925;-62
2022/08/24 11:52:39;;;;;;;;;;;;;;;25.69;44.46;98279.06;5028789;28;19929;-63
2022/08/24 11:55:09;;;;;;;;;;;;;;;25.72;44.40;98275.44;5029205;28;20070;-62
2022/08/24 11:57:39;;;;;;;;;;;;;;;25.59;44.92;98274.31;5022880;28;19921;-62
2022/08/24 12:00:17;;;;;;;;;;;;;;;25.66;44.26;98276.28;5024654;28;19921;-61
2022/08/24 12:02:48;;;;;;;;;;;;;;;25.44;43.73;98265.22;5025836;28;19921;-62
2022/08/24 12:05:19;;;;;;;;;;;;;;;25.61;44.56;98271.91;5030240;28;19968;-61
2022/08/24 12:07:50;;;;;;;;;;;;;;;25.83;43.63;98261.50;5025789;28;20390;-61
2022/08/24 12:10:21;;;;;;;;;;;;;;;25.88;43.56;98263.88;5029984;28;19921;-62
2022/08/24 12:12:51;;;;;;;;;;;;;;;26.17;42.82;98267.31;5024729;28;19921;-62
2022/08/24 12:15:25;;;;;;;;;;;;;;;26.12;42.95;98257.41;5027048;28;19953;-61
2022/08/24 12:17:54;;;;;;;;;;;;;;;26.23;42.48;98250.97;5027575;28;20028;-62
2022/08/24 12:20:48;;;;;;;;;;;;;;;26.39;41.95;98252.06;5040050;28;19927;-61
2022/08/24 12:23:19;;;;;;;;;;;;;;;26.34;42.11;98260.06;5028569;28;19928;-62
2022/08/24 12:26:01;;;;;;;;;;;;;;;26.37;40.88;98259.25;5026945;28;19968;-61
2022/08/24 12:29:18;;;;;;;;;;;;;;;26.57;41.24;98245.59;5024088;28;20462;-61
2022/08/24 12:31:47;;;;;;;;;;;;;;;26.66;42.21;98253.50;5022558;28;20415;-61
2022/08/24 12:34:20;;;;;;;8.83;2.80;;;;;;;26.67;41.02;98249.50;5023773;28;20411;-63
2022/08/24 12:36:59;;;;;;;3.30;1.90;;;;;;;26.50;41.83;98246.44;5020731;28;20460;-62
2022/08/24 12:39:28;;;;;;;;;;;;;;;26.58;42.69;98249.94;5027737;28;20443;-63
2022/08/24 12:41:58;;;;;;;;;;;;;;;26.49;41.83;98246.84;5030533;28;20436;-62
2022/08/24 12:44:29;;;;;;;;;;;;;;;26.50;42.03;98252.00;5042630;28;19975;-61
2022/08/24 12:47:00;;;;;;;;;;;;;;;25.91;42.33;98249.16;5044819;28;20385;-62
2022/08/24 12:49:28;;;;;;;;;;;;;;;25.78;42.68;98250.81;5027862;28;19929;-62
2022/08/24 12:52:01;;;;;;;;;;;;;;;26.00;42.21;98251.53;5026001;28;19925;-61
2022/08/24 12:54:35;;;;;;;;;;;;;;;25.97;41.71;98247.53;5027445;28;19925;-61
2022/08/24 12:57:18;;;;;;;;;;;;;;;25.80;42.77;98248.44;5027116;28;19932;-61
2022/08/24 12:59:48;;;;;;;;;;;;;;;25.82;42.62;98243.25;5027753;28;19921;-62
2022/08/24 13:02:30;;;;;;;;;;;;;;;25.89;42.86;98245.19;5028405;28;20016;-62
2022/08/24 13:05:04;;;;;;;;;;;;;;;26.06;42.08;98239.53;5023354;28;20392;-61
2022/08/24 13:07:38;;;;;;;;;;;;;;;26.12;41.93;98235.13;5029355;28;19935;-61
2022/08/24 13:10:13;;;;;;;;;;;;;;;26.19;42.75;98236.28;5041326;28;19921;-61
2022/08/24 13:12:51;;;;;;;;;;;;;;;26.31;41.56;98233.00;5028032;28;19921;-62